Terminal Aerodrome Forecast
Issued by NWS

Home | Current Version | Previous Version | Text Only | Print | Product List | Glossary On
Versions: 1 2 3 4 5 6 7 8 9 10 11 12 13 14 15 16 17 18
801
FTUS45 KABQ 011146
TAFAEG
TAF
KAEG 011146Z 0112/0212 12018G28KT P6SM VCSH SCT030 BKN050
      TEMPO 0112/0114 BKN030
     FM011600 12020G30KT P6SM BKN040
     FM011900 13015G25KT P6SM VCSH BKN040 BKN070=

USA.gov is the U.S. government's official web portal to all federal, state and local government web resources and services.